createdAt,value
2022-12-19T08:31:58.568Z,70.93
2022-12-19T08:34:25.143Z,71.90
2022-12-19T08:36:51.749Z,71.87
2022-12-19T08:39:18.321Z,71.29
2022-12-19T08:41:45.123Z,69.54
2022-12-19T08:44:13.146Z,69.99
2022-12-19T08:46:43.537Z,71.56
2022-12-19T08:49:13.197Z,71.02
2022-12-19T08:51:39.740Z,70.68
2022-12-19T08:54:07.917Z,71.04
2022-12-19T08:56:38.523Z,70.31
2022-12-19T08:59:15.983Z,69.54
2022-12-19T09:01:48.650Z,71.52
2022-12-19T09:05:58.839Z,70.76
2022-12-19T09:07:01.888Z,69.83
2022-12-19T09:09:28.715Z,69.83
2022-12-19T09:11:55.340Z,69.20
2022-12-19T09:19:32.789Z,69.57
2022-12-19T09:21:59.984Z,68.31
2022-12-19T09:24:26.572Z,69.16
2022-12-19T09:26:53.402Z,68.76
2022-12-19T09:30:32.976Z,68.71
2022-12-19T09:33:43.184Z,69.15
2022-12-19T09:39:05.553Z,68.69
2022-12-19T09:41:44.131Z,68.39
2022-12-19T09:44:43.811Z,68.53
2022-12-19T09:47:13.371Z,68.89
2022-12-19T13:14:52.178Z,67.31
2022-12-19T13:17:47.545Z,66.46
2022-12-19T13:20:58.284Z,67.05
2022-12-19T13:23:30.715Z,67.46
2022-12-19T13:26:00.350Z,68.07
2022-12-19T13:28:37.271Z,67.14
2022-12-19T15:37:53.081Z,76.56
2022-12-19T17:48:47.012Z,73.28
2022-12-19T17:51:25.711Z,74.69
2022-12-19T17:53:57.667Z,72.26
2022-12-19T17:57:02.927Z,71.38
2022-12-19T17:59:42.403Z,72.77
2022-12-19T18:02:32.346Z,72.92
2022-12-19T18:05:28.184Z,74.23
2022-12-19T18:07:56.135Z,72.60
2022-12-19T20:19:25.768Z,74.68
2022-12-19T20:21:52.473Z,73.33
2022-12-19T23:43:51.834Z,78.57
2022-12-19T23:46:21.549Z,77.00
2022-12-19T23:48:48.280Z,77.21
2022-12-19T23:51:17.746Z,77.96
2022-12-19T23:53:45.201Z,77.84
